createdAt,value
2019-05-23T00:00:04.790Z,11.95
2019-05-23T00:01:04.844Z,11.88
2019-05-23T00:02:57.847Z,11.97
2019-05-23T00:03:57.886Z,12.02
2019-05-23T00:05:50.884Z,11.95
2019-05-23T00:06:50.931Z,11.87
2019-05-23T00:08:43.912Z,11.77
2019-05-23T00:09:43.963Z,11.72
2019-05-23T00:11:39.820Z,11.72
2019-05-23T00:12:37.011Z,11.70
2019-05-23T00:14:29.990Z,11.66
2019-05-23T00:15:30.050Z,11.59
2019-05-23T00:17:23.069Z,11.59
2019-05-23T00:18:23.090Z,11.52
2019-05-23T00:20:16.073Z,11.54
2019-05-23T00:21:16.131Z,11.52
2019-05-23T00:23:09.144Z,11.51
2019-05-23T00:24:09.172Z,11.54
2019-05-23T00:26:02.153Z,11.47
2019-05-23T00:27:02.211Z,11.44
2019-05-23T00:29:09.019Z,11.41
2019-05-23T00:29:55.250Z,11.43
2019-05-23T00:31:48.258Z,11.43
2019-05-23T00:32:48.295Z,11.35
2019-05-23T00:34:41.275Z,11.22
2019-05-23T00:35:41.332Z,11.11
2019-05-23T00:37:34.345Z,11.19
2019-05-23T00:38:34.364Z,11.19
2019-05-23T00:40:27.350Z,11.18
2019-05-23T00:41:27.408Z,11.11
2019-05-23T00:43:20.425Z,11.12
2019-05-23T00:44:20.454Z,11.26
2019-05-23T00:46:13.430Z,11.43
2019-05-23T00:47:13.489Z,11.44
2019-05-23T00:49:06.490Z,11.44
2019-05-23T00:50:06.531Z,11.41
2019-05-23T00:51:59.551Z,11.44
2019-05-23T00:52:59.575Z,11.41
2019-05-23T00:54:52.557Z,11.40
2019-05-23T00:55:52.618Z,11.33
2019-05-23T00:57:46.145Z,11.36
2019-05-23T00:58:46.194Z,11.25
2019-05-23T01:00:39.171Z,11.23
2019-05-23T01:01:39.203Z,11.10
2019-05-23T01:03:32.201Z,11.22
2019-05-23T01:04:32.248Z,11.25
2019-05-23T01:06:25.251Z,11.17
2019-05-23T01:07:25.287Z,11.14
2019-05-23T01:09:18.304Z,11.15
2019-05-23T01:10:18.629Z,11.18
2019-05-23T01:12:11.307Z,11.02
2019-05-23T01:13:11.364Z,11.07
2019-05-23T01:15:04.365Z,10.97
2019-05-23T01:16:04.472Z,10.99
2019-05-23T01:17:57.412Z,10.63
2019-05-23T01:18:57.442Z,10.75
2019-05-23T01:20:50.423Z,10.71
2019-05-23T01:21:50.484Z,10.78
2019-05-23T01:23:43.493Z,10.71
2019-05-23T01:24:43.530Z,10.67
2019-05-23T01:26:36.508Z,10.60
2019-05-23T01:27:36.565Z,10.67
2019-05-23T01:29:37.471Z,10.72
2019-05-23T01:30:29.609Z,10.69
2019-05-23T01:32:22.591Z,10.68
2019-05-23T01:33:22.649Z,10.63
2019-05-23T01:35:15.666Z,10.63
2019-05-23T01:36:15.685Z,10.51
2019-05-23T01:38:08.684Z,10.61
2019-05-23T01:39:08.724Z,10.54
2019-05-23T01:41:01.715Z,10.54
2019-05-23T01:42:01.770Z,10.49
2019-05-23T01:43:54.782Z,10.37
2019-05-23T01:44:54.811Z,10.41
2019-05-23T01:46:47.790Z,10.35
2019-05-23T01:47:47.855Z,10.49
2019-05-23T01:49:40.877Z,10.51
2019-05-23T01:50:41.159Z,10.37
2019-05-23T01:52:33.866Z,10.34
2019-05-23T01:53:33.927Z,10.42
2019-05-23T01:55:26.936Z,10.38
2019-05-23T01:56:26.971Z,10.53
2019-05-23T01:58:19.984Z,10.48
2019-05-23T01:59:20.011Z,10.51
2019-05-23T02:01:12.992Z,10.41
2019-05-23T02:02:13.052Z,10.40
2019-05-23T02:04:06.046Z,10.26
2019-05-23T02:05:06.086Z,10.31
2019-05-23T02:06:59.091Z,10.13
2019-05-23T02:07:59.122Z,10.13
2019-05-23T02:09:52.104Z,10.20
2019-05-23T02:10:52.456Z,10.10
2019-05-23T02:12:45.158Z,10.02
2019-05-23T02:13:45.200Z,9.95
2019-05-23T02:15:38.200Z,9.92
2019-05-23T02:16:38.238Z,9.91
2019-05-23T02:18:31.247Z,9.89
2019-05-23T02:19:31.284Z,9.92
2019-05-23T02:21:24.258Z,9.87
2019-05-23T02:22:24.313Z,9.72
2019-05-23T02:24:17.321Z,9.74
2019-05-23T02:25:17.355Z,9.76
2019-05-23T02:27:10.337Z,9.73
2019-05-23T02:28:10.395Z,9.73
2019-05-23T02:30:03.410Z,9.73
2019-05-23T02:31:03.445Z,9.62
2019-05-23T02:32:56.447Z,9.58
2019-05-23T02:33:56.475Z,9.48
2019-05-23T02:35:49.456Z,9.58
2019-05-23T02:36:49.515Z,9.54
2019-05-23T02:38:42.528Z,9.40
2019-05-23T02:39:42.553Z,9.40
2019-05-23T02:41:35.533Z,9.41
2019-05-23T02:42:35.590Z,9.36
2019-05-23T02:44:28.605Z,9.41
2019-05-23T02:45:28.634Z,9.56
2019-05-23T02:47:21.619Z,9.51
2019-05-23T02:48:21.795Z,9.40
2019-05-23T02:50:14.677Z,9.48
2019-05-23T02:51:14.717Z,9.50
2019-05-23T02:53:07.692Z,9.48
2019-05-23T02:54:07.749Z,9.50
2019-05-23T02:56:00.744Z,9.55
2019-05-23T02:57:00.790Z,9.48
2019-05-23T02:58:53.812Z,9.69
2019-05-23T02:59:53.870Z,9.73
2019-05-23T03:01:46.866Z,9.72
2019-05-23T03:02:46.900Z,9.77
2019-05-23T03:04:39.883Z,9.76
2019-05-23T03:05:39.938Z,9.76
2019-05-23T03:07:32.942Z,9.74
2019-05-23T03:08:32.975Z,9.80
2019-05-23T03:10:25.976Z,9.80
2019-05-23T03:11:26.015Z,9.72
2019-05-23T03:13:19.023Z,9.76
2019-05-23T03:14:19.117Z,9.80
2019-05-23T03:16:12.028Z,9.76
2019-05-23T03:17:12.086Z,9.73
2019-05-23T03:19:05.084Z,9.66
2019-05-23T03:20:05.124Z,9.64
2019-05-23T03:21:58.105Z,9.62
2019-05-23T03:22:58.164Z,9.65
2019-05-23T03:24:51.158Z,9.62
2019-05-23T03:25:51.198Z,9.64
2019-05-23T03:27:44.192Z,9.62
2019-05-23T03:28:44.235Z,9.48
2019-05-23T03:30:37.229Z,9.46
2019-05-23T03:31:37.269Z,9.41
2019-05-23T03:33:30.271Z,9.25
2019-05-23T03:34:30.310Z,9.32
2019-05-23T03:36:23.297Z,9.32
2019-05-23T03:37:23.347Z,9.28
2019-05-23T03:39:16.364Z,9.28
2019-05-23T03:40:16.391Z,9.22
2019-05-23T03:42:09.390Z,9.18
2019-05-23T03:43:09.429Z,9.18
2019-05-23T03:45:02.426Z,9.14
2019-05-23T03:46:02.464Z,9.26
2019-05-23T03:47:55.481Z,9.16
2019-05-23T03:48:55.504Z,9.28
2019-05-23T03:50:48.483Z,9.47
2019-05-23T03:51:48.541Z,9.47
2019-05-23T03:53:41.541Z,9.58
2019-05-23T03:54:41.582Z,9.51
2019-05-23T03:56:34.566Z,9.55
2019-05-23T03:57:34.621Z,9.59
2019-05-23T03:59:27.641Z,9.68
2019-05-23T04:00:27.656Z,9.61
2019-05-23T04:02:20.667Z,9.58
2019-05-23T04:03:20.707Z,9.56
2019-05-23T04:05:13.707Z,9.50
2019-05-23T04:06:13.739Z,9.59
2019-05-23T04:08:06.715Z,9.51
2019-05-23T04:09:06.775Z,9.65
2019-05-23T04:10:59.773Z,9.66
2019-05-23T04:11:59.815Z,9.64
2019-05-23T04:13:52.814Z,9.65
2019-05-23T04:14:52.859Z,9.55
2019-05-23T04:16:45.846Z,9.61
2019-05-23T04:17:45.902Z,9.61
2019-05-23T04:19:38.899Z,9.68
2019-05-23T04:20:38.939Z,9.76
2019-05-23T04:22:31.923Z,9.74
2019-05-23T04:23:31.972Z,9.66
2019-05-23T04:25:24.983Z,9.72
2019-05-23T04:26:25.015Z,9.76
2019-05-23T04:28:17.993Z,9.74
2019-05-23T04:29:18.049Z,9.74
2019-05-23T04:31:13.129Z,9.80
2019-05-23T04:32:11.086Z,9.65
2019-05-23T04:34:04.068Z,9.69
2019-05-23T04:35:04.194Z,9.73
2019-05-23T04:36:57.212Z,9.73
2019-05-23T04:37:57.162Z,9.76
2019-05-23T04:39:50.144Z,9.86
2019-05-23T04:40:50.209Z,9.91
2019-05-23T04:42:43.211Z,9.92
2019-05-23T04:43:43.240Z,9.95
2019-05-23T04:45:36.243Z,10.04
2019-05-23T04:46:36.281Z,10.04
2019-05-23T04:48:29.292Z,9.95
2019-05-23T04:49:29.329Z,10.10
2019-05-23T04:51:22.307Z,10.17
2019-05-23T04:52:22.387Z,10.16
2019-05-23T04:54:15.361Z,10.30
2019-05-23T04:55:15.457Z,10.22
2019-05-23T04:57:08.914Z,10.34
2019-05-23T04:58:08.946Z,10.37
2019-05-23T05:00:02.206Z,10.48
2019-05-23T05:01:01.991Z,10.51
2019-05-23T05:02:54.978Z,10.56
2019-05-23T05:03:55.037Z,10.54
2019-05-23T05:05:48.049Z,10.61
2019-05-23T05:06:48.075Z,10.67
2019-05-23T05:08:41.068Z,10.75
2019-05-23T05:09:41.114Z,10.72
2019-05-23T05:11:34.112Z,10.86
2019-05-23T05:12:34.151Z,10.89
2019-05-23T05:14:27.171Z,10.99
2019-05-23T05:15:27.192Z,11.18
2019-05-23T05:17:20.176Z,11.19
2019-05-23T05:18:20.234Z,11.19
2019-05-23T05:20:13.236Z,11.26
2019-05-23T05:21:13.273Z,11.23
2019-05-23T05:23:06.282Z,11.37
2019-05-23T05:24:06.339Z,11.33
2019-05-23T05:25:59.303Z,11.45
2019-05-23T05:26:59.359Z,11.45
2019-05-23T05:28:52.365Z,11.57
2019-05-23T05:29:52.398Z,11.55
2019-05-23T05:31:45.405Z,11.70
2019-05-23T05:32:45.864Z,11.70
2019-05-23T05:34:38.445Z,11.81
2019-05-23T05:35:38.484Z,11.87
2019-05-23T05:37:31.490Z,12.04
2019-05-23T05:38:31.530Z,12.02
2019-05-23T05:40:24.522Z,12.06
2019-05-23T05:41:24.565Z,12.10
2019-05-23T05:43:17.570Z,12.24
2019-05-23T05:44:17.614Z,12.28
2019-05-23T05:46:10.594Z,12.40
2019-05-23T05:47:10.656Z,12.55
2019-05-23T05:49:03.673Z,12.61
2019-05-23T05:50:03.709Z,12.65
2019-05-23T05:51:56.704Z,12.80
2019-05-23T05:52:56.747Z,12.87
2019-05-23T05:54:49.754Z,12.97
2019-05-23T05:55:49.786Z,13.05
2019-05-23T05:57:43.282Z,13.13
2019-05-23T05:58:43.340Z,13.28
2019-05-23T06:00:36.341Z,13.44
2019-05-23T06:01:36.383Z,13.53
2019-05-23T06:03:29.387Z,13.90
2019-05-23T06:04:29.423Z,14.03
2019-05-23T06:06:22.409Z,14.54
2019-05-23T06:07:22.474Z,14.68
2019-05-23T06:09:15.472Z,15.37
2019-05-23T06:10:15.519Z,15.65
2019-05-23T06:12:08.507Z,16.90
2019-05-23T06:13:08.554Z,17.86
2019-05-23T06:15:02.143Z,19.96
2019-05-23T06:16:01.599Z,20.85
2019-05-23T06:17:54.597Z,22.32
2019-05-23T06:18:54.642Z,22.90
2019-05-23T06:20:47.646Z,23.95
2019-05-23T06:21:47.687Z,24.50
2019-05-23T06:23:40.693Z,24.54
2019-05-23T06:24:48.387Z,24.93
2019-05-23T06:26:33.739Z,25.25
2019-05-23T06:27:33.790Z,25.29
2019-05-23T06:29:26.796Z,25.68
2019-05-23T06:30:26.849Z,25.99
2019-05-23T06:32:19.847Z,26.26
2019-05-23T06:33:23.652Z,26.31
2019-05-23T06:35:12.924Z,26.55
2019-05-23T06:36:12.974Z,26.74
2019-05-23T06:38:05.974Z,26.74
2019-05-23T06:39:06.043Z,26.90
2019-05-23T06:40:59.062Z,27.42
2019-05-23T06:41:59.110Z,27.63
2019-05-23T06:43:52.138Z,27.92
2019-05-23T06:44:52.185Z,28.07
2019-05-23T06:46:45.203Z,27.15
2019-05-23T06:47:45.265Z,26.99
2019-05-23T06:49:38.295Z,27.08
2019-05-23T06:50:38.348Z,26.77
2019-05-23T06:52:31.367Z,26.51
2019-05-23T06:53:31.419Z,26.83
2019-05-23T06:55:24.434Z,27.68
2019-05-23T06:56:24.494Z,27.47
2019-05-23T06:58:17.515Z,27.75
2019-05-23T06:59:17.574Z,28.32
2019-05-23T07:01:10.606Z,28.91
2019-05-23T07:02:10.656Z,28.94
2019-05-23T07:04:03.664Z,28.94
2019-05-23T07:05:03.730Z,29.39
2019-05-23T07:06:56.760Z,30.09
2019-05-23T07:07:56.868Z,30.08
2019-05-23T07:09:49.835Z,30.03
2019-05-23T07:10:49.890Z,30.06
2019-05-23T07:12:42.915Z,30.63
2019-05-23T07:13:42.970Z,30.18
2019-05-23T07:15:35.994Z,30.03
2019-05-23T07:16:36.048Z,29.69
2019-05-23T07:18:29.071Z,30.08
2019-05-23T07:19:29.130Z,29.81
2019-05-23T07:21:22.172Z,30.81
2019-05-23T07:22:22.224Z,31.21
2019-05-23T07:24:15.242Z,32.36
2019-05-23T07:25:15.314Z,32.58
2019-05-23T07:27:08.393Z,32.45
2019-05-23T07:28:08.453Z,32.55
2019-05-23T07:30:01.767Z,32.95
2019-05-23T07:31:01.539Z,32.55
2019-05-23T07:32:54.576Z,32.83
2019-05-23T07:34:01.834Z,32.27
2019-05-23T07:35:47.636Z,31.78
2019-05-23T07:36:47.714Z,31.59
2019-05-23T07:38:40.744Z,30.80
2019-05-23T07:39:40.804Z,30.92
2019-05-23T07:41:33.838Z,30.55
2019-05-23T07:42:33.894Z,30.99
2019-05-23T07:44:26.932Z,31.99
2019-05-23T07:45:26.987Z,32.53
2019-05-23T07:47:20.043Z,31.99
2019-05-23T07:48:20.095Z,32.09
2019-05-23T07:50:13.102Z,31.39
2019-05-23T07:51:13.195Z,31.18
2019-05-23T07:53:06.219Z,31.12
2019-05-23T07:54:06.275Z,31.55
2019-05-23T07:55:59.326Z,32.00
2019-05-23T07:56:59.421Z,32.04
2019-05-23T07:58:52.381Z,32.14
2019-05-23T07:59:52.452Z,32.53
2019-05-23T08:01:45.495Z,33.55
2019-05-23T08:02:45.554Z,33.96
2019-05-23T08:04:38.587Z,33.83
2019-05-23T08:05:38.645Z,33.87
2019-05-23T08:07:32.872Z,33.87
2019-05-23T08:08:31.737Z,34.20
2019-05-23T08:10:33.685Z,35.30
2019-05-23T08:11:24.835Z,34.71
2019-05-23T08:13:17.859Z,34.17
2019-05-23T08:14:17.932Z,34.60
2019-05-23T08:16:10.971Z,34.58
2019-05-23T08:17:11.044Z,34.99
2019-05-23T08:19:04.063Z,35.52
2019-05-23T08:20:04.144Z,35.86
2019-05-23T08:21:57.174Z,34.81
2019-05-23T08:22:57.241Z,33.73
2019-05-23T08:24:51.358Z,34.02
2019-05-23T08:25:50.353Z,35.02
2019-05-23T08:27:43.399Z,36.07
2019-05-23T08:29:00.941Z,36.77
2019-05-23T08:30:36.495Z,36.67
2019-05-23T08:31:36.553Z,36.47
2019-05-23T08:33:29.604Z,35.12
2019-05-23T08:34:41.506Z,35.04
2019-05-23T08:36:22.696Z,34.38
2019-05-23T08:37:22.761Z,32.93
2019-05-23T08:39:15.809Z,33.99
2019-05-23T08:40:15.878Z,34.39
2019-05-23T08:42:08.902Z,35.04
2019-05-23T08:43:09.036Z,34.61
2019-05-23T08:45:02.058Z,34.18
2019-05-23T08:46:02.281Z,34.20
2019-05-23T08:47:55.115Z,34.36
2019-05-23T08:48:55.197Z,33.32
2019-05-23T08:50:51.358Z,33.36
2019-05-23T08:51:48.307Z,32.37
2019-05-23T08:53:41.358Z,33.65
2019-05-23T08:54:41.410Z,34.23
2019-05-23T08:56:34.435Z,34.18
2019-05-23T08:57:34.574Z,34.71
2019-05-23T08:59:27.566Z,35.15
2019-05-23T09:00:27.658Z,35.49
2019-05-23T09:02:20.658Z,35.45
2019-05-23T09:03:20.725Z,33.36
2019-05-23T09:05:13.786Z,32.07
2019-05-23T09:06:13.839Z,31.87
2019-05-23T09:08:06.887Z,31.31
2019-05-23T09:09:27.809Z,31.31
2019-05-23T09:10:59.973Z,31.07
2019-05-23T09:12:00.051Z,31.47
2019-05-23T09:13:53.088Z,32.09
2019-05-23T09:14:53.149Z,31.94
2019-05-23T09:16:46.204Z,32.53
2019-05-23T09:17:53.146Z,33.04
2019-05-23T09:19:39.297Z,32.51
2019-05-23T09:20:39.358Z,32.31
2019-05-23T09:22:32.388Z,31.22
2019-05-23T09:23:32.469Z,31.56
2019-05-23T09:25:25.513Z,32.08
2019-05-23T09:26:25.563Z,31.84
2019-05-23T09:28:18.603Z,31.14
2019-05-23T09:29:18.668Z,30.39
2019-05-23T09:31:11.687Z,28.98
2019-05-23T09:32:11.767Z,28.63
2019-05-23T09:34:04.803Z,28.26
2019-05-23T09:35:19.631Z,27.83
2019-05-23T09:37:00.263Z,27.03
2019-05-23T09:37:57.950Z,27.14
2019-05-23T09:39:50.997Z,27.20
2019-05-23T09:40:51.053Z,27.15
2019-05-23T09:42:44.064Z,26.45
2019-05-23T09:43:44.120Z,26.40
2019-05-23T09:45:37.131Z,26.31
2019-05-23T09:46:37.204Z,26.28
2019-05-23T09:48:30.233Z,26.06
2019-05-23T09:49:30.289Z,26.05
2019-05-23T09:51:23.342Z,25.93
2019-05-23T09:52:23.370Z,26.05
2019-05-23T09:54:16.461Z,25.98
2019-05-23T09:55:16.473Z,25.99
2019-05-23T09:57:09.455Z,26.00
2019-05-23T09:58:09.523Z,25.70
2019-05-23T10:00:02.658Z,25.54
2019-05-23T10:01:02.602Z,25.54
2019-05-23T10:02:55.605Z,25.51
2019-05-23T10:03:55.677Z,25.25
2019-05-23T10:05:48.695Z,25.26
2019-05-23T10:06:48.767Z,25.36
2019-05-23T10:08:41.790Z,25.07
2019-05-23T10:09:41.832Z,25.14
2019-05-23T10:11:34.869Z,25.08
2019-05-23T10:12:34.902Z,25.08
2019-05-23T10:14:27.901Z,24.85
2019-05-23T10:15:28.002Z,24.69
2019-05-23T10:17:20.991Z,24.69
2019-05-23T10:18:21.045Z,24.65
2019-05-23T10:20:14.081Z,24.84
2019-05-23T10:21:14.111Z,24.95
2019-05-23T10:23:07.155Z,25.04
2019-05-23T10:24:07.175Z,25.07
2019-05-23T10:26:00.249Z,24.80
2019-05-23T10:27:00.250Z,24.77
2019-05-23T10:28:53.252Z,24.69
2019-05-23T10:29:53.317Z,24.70
2019-05-23T10:31:46.335Z,24.55
2019-05-23T10:32:46.391Z,24.50
2019-05-23T10:34:39.392Z,24.48
2019-05-23T10:35:39.460Z,24.51
2019-05-23T10:37:32.478Z,24.32
2019-05-23T10:38:32.524Z,24.57
2019-05-23T10:40:25.532Z,24.55
2019-05-23T10:41:25.594Z,24.63
2019-05-23T10:43:18.611Z,24.61
2019-05-23T10:44:18.666Z,24.66
2019-05-23T10:46:11.684Z,24.80
2019-05-23T10:47:11.733Z,24.95
2019-05-23T10:49:04.757Z,24.69
2019-05-23T10:50:08.462Z,24.73
2019-05-23T10:51:57.812Z,24.68
2019-05-23T10:52:57.873Z,24.69
2019-05-23T10:54:50.896Z,24.77
2019-05-23T10:55:50.972Z,24.80
2019-05-23T10:57:44.459Z,24.73
2019-05-23T10:58:44.524Z,24.76
2019-05-23T11:00:37.536Z,24.70
2019-05-23T11:01:37.591Z,24.70
2019-05-23T11:03:30.594Z,24.69
2019-05-23T11:04:30.658Z,24.69
2019-05-23T11:06:23.680Z,24.95
2019-05-23T11:07:23.728Z,24.65
2019-05-23T11:09:16.748Z,24.92
2019-05-23T11:10:16.796Z,24.81
2019-05-23T11:12:09.844Z,24.58
2019-05-23T11:13:09.875Z,24.45
2019-05-23T11:15:03.381Z,24.54
2019-05-23T11:16:03.442Z,24.48
2019-05-23T11:17:56.996Z,24.55
2019-05-23T11:18:56.514Z,24.65
2019-05-23T11:20:49.535Z,24.63
2019-05-23T11:21:49.625Z,24.63
2019-05-23T11:23:42.592Z,24.65
2019-05-23T11:24:42.690Z,24.78
2019-05-23T11:26:35.654Z,24.78
2019-05-23T11:27:35.711Z,24.86
2019-05-23T11:29:28.728Z,24.77
2019-05-23T11:30:28.776Z,24.51
2019-05-23T11:32:21.777Z,24.03
2019-05-23T11:33:21.842Z,24.08
2019-05-23T11:35:14.861Z,24.01
2019-05-23T11:36:14.914Z,24.10
2019-05-23T11:38:07.931Z,24.08
2019-05-23T11:39:07.976Z,24.11
2019-05-23T11:41:00.996Z,24.32
2019-05-23T11:42:01.043Z,24.40
2019-05-23T11:43:54.060Z,24.50
2019-05-23T11:44:54.106Z,24.50
2019-05-23T11:46:47.135Z,24.50
2019-05-23T11:47:47.173Z,24.65
2019-05-23T11:49:40.344Z,24.70
2019-05-23T11:50:40.261Z,24.80
2019-05-23T11:52:33.272Z,24.70
2019-05-23T11:53:33.326Z,24.80
2019-05-23T11:55:26.347Z,24.70
2019-05-23T11:56:26.384Z,24.73
2019-05-23T11:58:19.436Z,24.76
2019-05-23T11:59:19.459Z,25.04
2019-05-23T12:01:20.674Z,24.91
2019-05-23T12:02:12.518Z,24.81
2019-05-23T12:04:05.519Z,25.08
2019-05-23T12:05:05.582Z,25.11
2019-05-23T12:06:58.611Z,25.14
2019-05-23T12:07:58.645Z,25.08
2019-05-23T12:09:51.655Z,25.08
2019-05-23T12:10:51.712Z,25.06
2019-05-23T12:12:44.731Z,25.06
2019-05-23T12:13:44.782Z,25.07
2019-05-23T12:15:38.311Z,25.10
2019-05-23T12:16:38.362Z,25.25
2019-05-23T12:18:31.361Z,25.32
2019-05-23T12:19:31.429Z,25.43
2019-05-23T12:21:24.443Z,25.38
2019-05-23T12:22:24.491Z,25.29
2019-05-23T12:24:17.496Z,25.06
2019-05-23T12:25:22.596Z,25.10
2019-05-23T12:27:10.585Z,24.93
2019-05-23T12:28:10.630Z,24.77
2019-05-23T12:30:03.632Z,24.95
2019-05-23T12:31:03.702Z,24.95
2019-05-23T12:32:56.718Z,24.73
2019-05-23T12:33:56.765Z,24.63
2019-05-23T12:35:49.768Z,24.51
2019-05-23T12:36:49.838Z,24.43
2019-05-23T12:38:42.879Z,24.40
2019-05-23T12:39:42.903Z,24.50
2019-05-23T12:41:35.929Z,24.69
2019-05-23T12:42:35.974Z,24.86
2019-05-23T12:44:28.998Z,25.21
2019-05-23T12:45:29.037Z,25.31
2019-05-23T12:47:22.039Z,25.40
2019-05-23T12:48:22.108Z,25.55
2019-05-23T12:50:15.125Z,25.33
2019-05-23T12:51:15.172Z,25.35
2019-05-23T12:53:08.176Z,25.08
2019-05-23T12:54:08.260Z,24.99
2019-05-23T12:56:01.266Z,24.78
2019-05-23T12:57:01.306Z,24.85
2019-05-23T12:58:54.308Z,24.91
2019-05-23T12:59:54.369Z,25.01
2019-05-23T13:01:47.396Z,25.06
2019-05-23T13:02:47.442Z,25.21
2019-05-23T13:04:40.453Z,25.16
2019-05-23T13:05:40.509Z,25.07
2019-05-23T13:07:36.623Z,24.86
2019-05-23T13:08:33.572Z,24.78
2019-05-23T13:10:26.605Z,24.86
2019-05-23T13:11:26.675Z,24.85
2019-05-23T13:13:19.641Z,25.07
2019-05-23T13:14:19.724Z,25.13
2019-05-23T13:16:12.725Z,24.93
2019-05-23T13:17:12.773Z,25.08
2019-05-23T13:19:05.796Z,25.08
2019-05-23T13:20:05.845Z,25.11
2019-05-23T13:21:58.860Z,25.31
2019-05-23T13:22:58.957Z,25.46
2019-05-23T13:24:53.463Z,25.38
2019-05-23T13:25:52.013Z,25.33
2019-05-23T13:27:44.976Z,24.95
2019-05-23T13:28:45.042Z,24.92
2019-05-23T13:30:38.067Z,25.07
2019-05-23T13:31:38.107Z,25.06
2019-05-23T13:33:31.110Z,24.69
2019-05-23T13:34:31.174Z,24.70
2019-05-23T13:36:24.191Z,24.57
2019-05-23T13:37:24.242Z,24.51
2019-05-23T13:39:17.267Z,24.69
2019-05-23T13:40:17.308Z,24.78
2019-05-23T13:42:10.328Z,25.14
2019-05-23T13:43:10.383Z,25.22
2019-05-23T13:45:03.404Z,25.22
2019-05-23T13:46:03.447Z,25.31
2019-05-23T13:47:56.469Z,25.40
2019-05-23T13:48:56.510Z,25.54
2019-05-23T13:50:49.524Z,25.32
2019-05-23T13:51:49.578Z,25.08
2019-05-23T13:53:42.574Z,24.85
2019-05-23T13:54:42.647Z,24.86
2019-05-23T13:56:35.755Z,24.69
2019-05-23T13:57:35.739Z,24.68
2019-05-23T13:59:28.731Z,24.55
2019-05-23T14:00:28.778Z,24.45
2019-05-23T14:02:21.794Z,24.50
2019-05-23T14:03:21.850Z,24.48
2019-05-23T14:05:18.956Z,24.54
2019-05-23T14:06:15.426Z,24.55
2019-05-23T14:08:12.795Z,24.78
2019-05-23T14:09:08.479Z,24.84
2019-05-23T14:11:01.993Z,24.99
2019-05-23T14:12:21.767Z,25.07
2019-05-23T14:14:00.241Z,25.03
2019-05-23T14:14:55.121Z,25.06
2019-05-23T14:16:48.134Z,25.25
2019-05-23T14:17:48.186Z,25.25
2019-05-23T14:19:41.203Z,25.38
2019-05-23T14:20:41.251Z,25.44
2019-05-23T14:22:34.252Z,25.50
2019-05-23T14:23:34.315Z,25.41
2019-05-23T14:25:27.331Z,25.26
2019-05-23T14:26:27.378Z,25.06
2019-05-23T14:28:20.410Z,25.14
2019-05-23T14:29:20.466Z,25.03
2019-05-23T14:31:13.496Z,25.03
2019-05-23T14:32:13.582Z,24.93
2019-05-23T14:34:06.610Z,24.89
2019-05-23T14:35:06.600Z,24.81
2019-05-23T14:36:59.658Z,24.61
2019-05-23T14:37:59.668Z,24.58
2019-05-23T14:39:52.684Z,24.65
2019-05-23T14:40:52.746Z,24.54
2019-05-23T14:42:45.808Z,24.63
2019-05-23T14:43:45.802Z,24.80
2019-05-23T14:45:38.820Z,24.93
2019-05-23T14:46:38.873Z,25.04
2019-05-23T14:48:31.887Z,25.06
2019-05-23T14:49:31.934Z,25.01
2019-05-23T14:51:24.959Z,24.78
2019-05-23T14:52:25.001Z,24.76
2019-05-23T14:54:18.020Z,24.68
2019-05-23T14:55:18.065Z,24.68
2019-05-23T14:57:11.214Z,24.53
2019-05-23T14:58:11.135Z,24.61
2019-05-23T15:00:04.155Z,24.66
2019-05-23T15:01:04.199Z,24.68
2019-05-23T15:02:57.192Z,24.70
2019-05-23T15:03:57.257Z,24.80
2019-05-23T15:05:50.277Z,24.80
2019-05-23T15:06:50.321Z,24.78
2019-05-23T15:08:51.200Z,24.78
2019-05-23T15:09:43.383Z,24.85
2019-05-23T15:11:36.398Z,24.92
2019-05-23T15:12:36.446Z,25.03
2019-05-23T15:14:29.487Z,25.14
2019-05-23T15:15:29.509Z,25.08
2019-05-23T15:17:22.527Z,25.07
2019-05-23T15:18:22.570Z,25.04
2019-05-23T15:20:15.605Z,24.81
2019-05-23T15:21:15.637Z,24.84
2019-05-23T15:23:08.679Z,24.84
2019-05-23T15:24:08.700Z,24.81
2019-05-23T15:26:01.701Z,24.86
2019-05-23T15:27:01.764Z,24.81
2019-05-23T15:28:54.787Z,24.88
2019-05-23T15:29:54.830Z,24.85
2019-05-23T15:32:01.887Z,24.89
2019-05-23T15:32:47.895Z,24.93
2019-05-23T15:34:40.913Z,25.01
2019-05-23T15:35:40.981Z,25.07
2019-05-23T15:37:33.971Z,25.07
2019-05-23T15:38:34.037Z,25.06
2019-05-23T15:40:27.085Z,24.81
2019-05-23T15:41:27.119Z,24.69
2019-05-23T15:43:20.098Z,24.73
2019-05-23T15:44:26.968Z,24.74
2019-05-23T15:46:13.198Z,24.58
2019-05-23T15:47:13.277Z,24.66
2019-05-23T15:49:06.260Z,24.63
2019-05-23T15:50:10.913Z,24.54
2019-05-23T15:51:59.379Z,24.45
2019-05-23T15:52:59.383Z,24.28
2019-05-23T15:54:52.397Z,24.35
2019-05-23T15:55:52.446Z,24.38
2019-05-23T15:57:45.449Z,24.13
2019-05-23T15:58:45.517Z,24.20
2019-05-23T16:00:38.543Z,23.93
2019-05-23T16:01:38.592Z,23.95
2019-05-23T16:03:31.808Z,23.87
2019-05-23T16:04:31.666Z,23.88
2019-05-23T16:06:24.694Z,23.86
2019-05-23T16:07:24.727Z,23.91
2019-05-23T16:09:29.248Z,23.91
2019-05-23T16:10:17.793Z,23.88
2019-05-23T16:12:10.810Z,23.88
2019-05-23T16:13:10.856Z,23.78
2019-05-23T16:15:03.870Z,23.83
2019-05-23T16:16:03.924Z,23.92
2019-05-23T16:17:56.942Z,23.98
2019-05-23T16:18:56.982Z,24.05
2019-05-23T16:20:49.984Z,24.08
2019-05-23T16:21:50.048Z,24.11
2019-05-23T16:23:43.066Z,24.21
2019-05-23T16:24:43.112Z,24.06
2019-05-23T16:26:36.121Z,23.99
2019-05-23T16:27:36.195Z,23.91
2019-05-23T16:29:29.211Z,23.91
2019-05-23T16:30:29.243Z,23.86
2019-05-23T16:32:22.258Z,23.83
2019-05-23T16:33:22.307Z,23.69
2019-05-23T16:35:15.334Z,23.61
2019-05-23T16:36:15.380Z,23.69
2019-05-23T16:38:08.415Z,23.66
2019-05-23T16:39:08.448Z,23.78
2019-05-23T16:41:01.470Z,23.73
2019-05-23T16:42:01.509Z,23.71
2019-05-23T16:43:54.512Z,23.74
2019-05-23T16:44:54.577Z,23.65
2019-05-23T16:46:47.590Z,23.55
2019-05-23T16:47:47.633Z,23.61
2019-05-23T16:49:40.634Z,23.58
2019-05-23T16:50:40.700Z,23.66
2019-05-23T16:52:34.245Z,23.61
2019-05-23T16:53:35.976Z,23.58
2019-05-23T16:55:27.262Z,23.61
2019-05-23T16:56:27.423Z,23.63
2019-05-23T16:58:20.359Z,23.51
2019-05-23T16:59:20.394Z,23.56
2019-05-23T17:01:23.568Z,23.62
2019-05-23T17:02:13.451Z,23.59
2019-05-23T17:04:06.517Z,23.61
2019-05-23T17:05:10.514Z,23.55
2019-05-23T17:06:59.513Z,23.65
2019-05-23T17:08:03.820Z,23.62
2019-05-23T17:10:07.781Z,23.65
2019-05-23T17:10:52.639Z,23.63
2019-05-23T17:12:45.653Z,23.65
2019-05-23T17:13:45.707Z,23.61
2019-05-23T17:15:38.708Z,23.56
2019-05-23T17:16:38.762Z,23.55
2019-05-23T17:18:31.774Z,23.44
2019-05-23T17:19:31.826Z,23.54
2019-05-23T17:21:24.889Z,23.39
2019-05-23T17:22:24.912Z,23.37
2019-05-23T17:24:17.983Z,23.34
2019-05-23T17:25:17.988Z,23.39
2019-05-23T17:27:11.057Z,23.43
2019-05-23T17:28:11.077Z,23.32
2019-05-23T17:30:08.015Z,23.39
2019-05-23T17:31:04.107Z,23.36
2019-05-23T17:32:57.119Z,23.24
2019-05-23T17:33:57.163Z,23.28
2019-05-23T17:35:50.188Z,23.32
2019-05-23T17:36:50.267Z,23.27
2019-05-23T17:38:43.232Z,23.27
2019-05-23T17:39:43.294Z,23.21
2019-05-23T17:41:36.298Z,23.13
2019-05-23T17:42:36.344Z,23.10
2019-05-23T17:44:29.375Z,23.24
2019-05-23T17:45:29.405Z,23.23
2019-05-23T17:47:22.485Z,23.08
2019-05-23T17:48:22.458Z,23.03
2019-05-23T17:50:15.463Z,22.98
2019-05-23T17:51:15.526Z,23.08
2019-05-23T17:53:08.541Z,22.98
2019-05-23T17:54:08.589Z,22.83
2019-05-23T17:56:01.606Z,22.80
2019-05-23T17:57:01.649Z,22.90
2019-05-23T17:58:54.650Z,22.68
2019-05-23T17:59:54.710Z,22.69
2019-05-23T18:01:47.725Z,22.65
2019-05-23T18:02:47.769Z,22.55
2019-05-23T18:04:40.769Z,22.51
2019-05-23T18:05:40.831Z,22.45
2019-05-23T18:07:33.834Z,22.47
2019-05-23T18:08:33.898Z,22.44
2019-05-23T18:10:43.279Z,22.33
2019-05-23T18:11:26.959Z,22.35
2019-05-23T18:13:19.976Z,22.18
2019-05-23T18:14:20.022Z,22.26
2019-05-23T18:16:13.035Z,22.15
2019-05-23T18:17:13.078Z,22.18
2019-05-23T18:19:06.073Z,22.13
2019-05-23T18:20:06.141Z,22.11
2019-05-23T18:21:59.155Z,22.15
2019-05-23T18:22:59.204Z,22.08
2019-05-23T18:24:52.223Z,22.04
2019-05-23T18:25:52.369Z,22.07
2019-05-23T18:27:45.276Z,21.99
2019-05-23T18:28:45.321Z,21.92
2019-05-23T18:30:38.338Z,21.85
2019-05-23T18:31:38.375Z,21.77
2019-05-23T18:33:31.401Z,21.75
2019-05-23T18:34:31.437Z,21.72
2019-05-23T18:36:24.427Z,21.66
2019-05-23T18:37:24.501Z,21.64
2019-05-23T18:39:17.507Z,21.62